Archival Weather

Snohomish County (Paine Fld)

Everett, Washington (KPAE)

Report from: Saturday, November 18, 2023 1:53 PM PST
Current time: Friday, June 21, 2024 12:20 AM PDT

Current weather – Weather history – Daily summaries
Weather forecast

Temperature14.4°C (57.9°F)
Dew point3.3°C (37.9°F)
Winds 9 kts (4.6 m/s, 10.4 mph) South-Southeast (150°)
Visibility10 mi. (16.1 km)
Clouds Ceiling: Broken clouds 12,000 ft. (3,658 m)
Altimeter29.64 in.Hg (1004 mB)
Relative humidity47 %
Density altitude365 ft. (111 m)
Sea-level pressure100.4 kPa (1004 mB, 29.64 in.Hg)
Remarks Automated weather observing station with precipitation discriminator
Flight conditions Visual Meteorological Conditions
Raw dataKPAE 182153Z 15009KT 10SM BKN120 14/03 A2964 RMK AO2 SLP038 T01440033
An error has occurred. This application may no longer respond until reloaded. Reload 🗙